createdAt,value
2018-02-13T00:00:08.892Z,8.77
2018-02-13T00:02:37.994Z,10.17
2018-02-13T00:05:07.113Z,11.40
2018-02-13T00:07:36.266Z,11.03
2018-02-13T00:10:05.401Z,9.60
2018-02-13T00:12:35.266Z,9.33
2018-02-13T00:15:04.412Z,9.17
2018-02-13T00:17:33.482Z,8.80
2018-02-13T00:20:02.578Z,7.00
2018-02-13T00:22:48.314Z,8.17
2018-02-13T00:25:18.186Z,7.70
2018-02-13T00:27:47.278Z,7.10
2018-02-13T00:30:16.371Z,8.43
2018-02-13T00:32:45.497Z,8.80
2018-02-13T00:35:14.589Z,7.30
2018-02-13T00:37:43.702Z,7.10
2018-02-13T00:40:12.785Z,9.10
2018-02-13T00:42:41.905Z,11.27
2018-02-13T00:45:11.777Z,8.70
2018-02-13T00:47:40.867Z,7.07
2018-02-13T00:50:09.983Z,7.80
2018-02-13T00:52:39.104Z,7.90
2018-02-13T00:55:08.973Z,7.97
2018-02-13T00:57:38.093Z,7.97
2018-02-13T01:00:07.216Z,8.57
2018-02-13T01:02:37.081Z,9.67
2018-02-13T01:05:06.199Z,9.30
2018-02-13T01:07:35.288Z,10.20
2018-02-13T01:10:04.404Z,7.97
2018-02-13T01:12:33.507Z,8.60
2018-02-13T01:15:02.626Z,8.03
2018-02-13T01:17:31.734Z,7.77
2018-02-13T01:20:00.842Z,7.10
2018-02-13T01:22:29.952Z,7.43
2018-02-13T01:24:59.061Z,6.60
2018-02-13T01:27:28.146Z,7.90
2018-02-13T01:29:57.266Z,7.33
2018-02-13T01:32:26.381Z,7.97
2018-02-13T01:34:55.491Z,7.17
2018-02-13T01:37:24.588Z,7.40
2018-02-13T01:39:53.697Z,6.60
2018-02-13T01:42:23.153Z,7.97
2018-02-13T01:44:52.240Z,8.37
2018-02-13T01:47:22.856Z,8.00
2018-02-13T01:49:51.950Z,7.10
2018-02-13T01:52:21.057Z,8.40
2018-02-13T01:54:50.162Z,6.67
2018-02-13T01:57:19.279Z,7.03
2018-02-13T01:59:48.358Z,6.00
2018-02-13T02:02:21.107Z,7.57
2018-02-13T02:04:50.209Z,6.53
2018-02-13T02:07:19.337Z,7.33
2018-02-13T02:09:48.425Z,6.87
2018-02-13T02:12:17.558Z,7.53
2018-02-13T02:14:47.406Z,8.10
2018-02-13T02:17:16.536Z,6.30
2018-02-13T02:19:45.633Z,6.73
2018-02-13T02:22:14.725Z,6.60
2018-02-13T02:24:43.852Z,6.70
2018-02-13T02:27:13.712Z,7.70
2018-02-13T02:29:42.818Z,5.97
2018-02-13T02:32:11.921Z,7.10
2018-02-13T02:34:41.029Z,7.23
2018-02-13T02:37:10.131Z,7.10
2018-02-13T02:39:40.024Z,6.93
2018-02-13T02:42:09.123Z,7.10
2018-02-13T02:44:38.226Z,7.20
2018-02-13T02:47:07.315Z,7.40
2018-02-13T02:49:36.417Z,6.00
2018-02-13T02:52:05.529Z,6.50
2018-02-13T02:54:35.407Z,5.57
2018-02-13T02:57:04.514Z,6.60
2018-02-13T02:59:33.598Z,6.70
2018-02-13T03:04:40.279Z,7.30
2018-02-13T03:07:09.396Z,7.50
2018-02-13T03:09:40.007Z,7.00
2018-02-13T03:12:09.152Z,7.17
2018-02-13T03:14:39.010Z,6.30
2018-02-13T03:17:08.135Z,7.77
2018-02-13T03:19:37.274Z,6.50
2018-02-13T03:22:07.160Z,7.33
2018-02-13T03:24:36.259Z,6.43
2018-02-13T03:27:05.341Z,6.50
2018-02-13T03:29:35.225Z,6.90
2018-02-13T03:32:04.338Z,6.83
2018-02-13T03:34:33.570Z,6.30
2018-02-13T03:37:04.562Z,6.70
2018-02-13T03:39:33.685Z,7.10
2018-02-13T03:42:02.793Z,6.37
2018-02-13T03:44:31.909Z,5.40
2018-02-13T03:47:01.774Z,6.30
2018-02-13T03:49:30.890Z,6.17
2018-02-13T03:51:59.987Z,5.30
2018-02-13T03:54:29.120Z,5.60
2018-02-13T03:56:58.969Z,5.97
2018-02-13T03:59:28.071Z,5.37
2018-02-13T04:01:57.180Z,5.60
2018-02-13T04:04:26.294Z,4.93
2018-02-13T04:06:55.417Z,6.03
2018-02-13T04:09:24.526Z,4.90
2018-02-13T04:11:53.637Z,4.83
2018-02-13T04:14:22.729Z,7.13
2018-02-13T04:16:51.845Z,5.37
2018-02-13T04:19:20.925Z,5.27
2018-02-13T04:21:50.038Z,4.30
2018-02-13T04:24:19.132Z,5.73
2018-02-13T04:26:48.253Z,5.00
2018-02-13T04:29:17.381Z,4.73
2018-02-13T04:31:47.256Z,7.73
2018-02-13T04:34:16.353Z,12.77
2018-02-13T04:36:45.474Z,11.20
2018-02-13T04:39:15.349Z,9.67
2018-02-13T04:41:44.479Z,8.20
2018-02-13T04:44:13.559Z,4.87
2018-02-13T04:46:42.675Z,6.30
2018-02-13T04:49:12.553Z,5.53
2018-02-13T04:51:41.646Z,5.60
2018-02-13T04:54:10.782Z,4.93
2018-02-13T04:56:39.864Z,5.40
2018-02-13T04:59:09.767Z,6.03
2018-02-13T05:01:38.874Z,6.73
2018-02-13T05:04:08.001Z,5.50
2018-02-13T05:06:38.526Z,5.00
2018-02-13T05:09:08.402Z,3.80
2018-02-13T05:11:37.501Z,4.00
2018-02-13T05:14:06.606Z,4.20
2018-02-13T05:16:37.221Z,5.03
2018-02-13T05:19:06.333Z,3.87
2018-02-13T05:21:35.460Z,4.10
2018-02-13T05:24:05.308Z,4.40
2018-02-13T05:26:34.398Z,6.97
2018-02-13T05:29:03.510Z,7.37
2018-02-13T05:31:32.613Z,6.83
2018-02-13T05:34:01.745Z,5.90
2018-02-13T05:36:31.634Z,4.67
2018-02-13T05:39:00.734Z,5.90
2018-02-13T05:41:29.820Z,6.30
2018-02-13T05:43:58.939Z,4.80
2018-02-13T05:46:28.027Z,5.27
2018-02-13T05:48:57.145Z,4.33
2018-02-13T05:51:27.009Z,5.40
2018-02-13T05:53:56.103Z,5.27
2018-02-13T05:56:26.007Z,5.50
2018-02-13T05:58:55.122Z,4.70
2018-02-13T06:01:24.221Z,5.40
2018-02-13T06:03:53.321Z,5.30
2018-02-13T06:06:22.421Z,4.63
2018-02-13T06:08:52.583Z,4.67
2018-02-13T06:11:22.451Z,5.30
2018-02-13T06:13:51.544Z,5.20
2018-02-13T06:16:20.681Z,4.87
2018-02-13T06:18:50.554Z,4.93
2018-02-13T06:21:19.670Z,4.83
2018-02-13T06:23:48.774Z,4.67
2018-02-13T06:26:18.645Z,5.37
2018-02-13T06:28:47.741Z,5.60
2018-02-13T06:31:16.867Z,5.40
2018-02-13T06:33:45.969Z,5.63
2018-02-13T06:36:15.069Z,5.37
2018-02-13T06:38:44.965Z,5.27
2018-02-13T06:41:14.046Z,5.97
2018-02-13T06:43:43.162Z,7.23
2018-02-13T06:46:12.274Z,8.00
2018-02-13T06:48:42.158Z,6.77
2018-02-13T06:51:11.260Z,7.53
2018-02-13T06:53:40.379Z,8.20
2018-02-13T06:56:09.481Z,8.67
2018-02-13T06:58:39.339Z,6.67
2018-02-13T07:01:08.431Z,5.73
2018-02-13T07:03:37.534Z,4.70
2018-02-13T07:06:06.644Z,5.43
2018-02-13T07:08:35.741Z,4.97
2018-02-13T07:11:04.845Z,5.53
2018-02-13T07:13:33.958Z,5.70
2018-02-13T07:16:03.069Z,6.70
2018-02-13T07:18:32.956Z,12.77
2018-02-13T07:21:02.076Z,11.00
2018-02-13T07:23:31.182Z,9.67
2018-02-13T07:26:01.053Z,6.57
2018-02-13T07:28:30.153Z,5.97
2018-02-13T07:30:59.262Z,6.60
2018-02-13T07:33:28.358Z,6.30
2018-02-13T07:35:57.505Z,6.40
2018-02-13T07:38:27.336Z,8.43
2018-02-13T07:40:56.450Z,14.93
2018-02-13T07:43:25.549Z,18.93
2018-02-13T07:45:54.650Z,15.60
2018-02-13T07:48:23.766Z,11.97
2018-02-13T07:50:52.860Z,8.80
2018-02-13T07:53:21.962Z,9.23
2018-02-13T07:55:51.818Z,8.63
2018-02-13T07:58:20.930Z,8.07
2018-02-13T08:00:50.034Z,7.87
2018-02-13T08:03:19.129Z,7.77
2018-02-13T08:05:48.266Z,6.30
2018-02-13T08:08:17.344Z,6.40
2018-02-13T08:10:46.477Z,6.43
2018-02-13T08:13:15.596Z,5.43
2018-02-13T08:15:44.708Z,5.73
2018-02-13T08:18:13.825Z,5.57
2018-02-13T08:20:42.920Z,5.57
2018-02-13T08:23:12.033Z,5.30
2018-02-13T08:25:41.920Z,4.73
2018-02-13T08:28:11.063Z,5.70
2018-02-13T08:30:40.929Z,5.47
2018-02-13T08:33:10.027Z,4.60
2018-02-13T08:35:39.117Z,3.87
2018-02-13T08:38:08.213Z,4.63
2018-02-13T08:40:37.327Z,4.03
2018-02-13T08:43:06.409Z,4.83
2018-02-13T08:45:35.531Z,3.90
2018-02-13T08:48:04.631Z,4.63
2018-02-13T08:50:34.514Z,4.10
2018-02-13T08:53:03.606Z,4.20
2018-02-13T08:55:32.716Z,4.23
2018-02-13T08:58:01.824Z,3.63
2018-02-13T09:00:30.906Z,3.70
2018-02-13T09:03:00.863Z,4.63
2018-02-13T09:05:30.721Z,3.83
2018-02-13T09:07:59.813Z,5.57
2018-02-13T09:10:28.937Z,3.90
2018-02-13T09:12:58.069Z,4.17
2018-02-13T09:15:27.178Z,3.80
2018-02-13T09:17:56.254Z,5.27
2018-02-13T09:20:25.417Z,4.33
2018-02-13T09:22:54.461Z,4.77
2018-02-13T09:25:23.585Z,3.80
2018-02-13T09:27:52.661Z,3.77
2018-02-13T09:30:21.813Z,4.50
2018-02-13T09:32:50.926Z,4.30
2018-02-13T09:35:20.777Z,4.07
2018-02-13T09:37:49.895Z,5.10
2018-02-13T09:40:18.966Z,3.33
2018-02-13T09:42:48.112Z,4.10
2018-02-13T09:45:17.233Z,3.63
2018-02-13T09:47:46.318Z,3.90
2018-02-13T09:50:15.405Z,3.70
2018-02-13T09:52:45.296Z,4.00
2018-02-13T09:55:14.402Z,4.37
2018-02-13T09:57:43.513Z,3.90
2018-02-13T10:00:13.384Z,4.30
2018-02-13T10:02:42.519Z,3.90
2018-02-13T10:05:11.591Z,4.37
2018-02-13T10:07:40.735Z,4.47
2018-02-13T10:10:10.596Z,4.27
2018-02-13T10:12:39.691Z,3.20
2018-02-13T10:15:08.794Z,3.57
2018-02-13T10:17:37.907Z,3.50
2018-02-13T10:20:07.010Z,3.20
2018-02-13T10:22:36.146Z,3.50
2018-02-13T10:25:05.296Z,3.77
2018-02-13T10:27:34.435Z,5.93
2018-02-13T10:30:03.533Z,3.30
2018-02-13T10:32:33.407Z,3.77
2018-02-13T10:35:02.508Z,3.47
2018-02-13T10:37:31.653Z,3.03
2018-02-13T10:40:00.757Z,3.63
2018-02-13T10:42:30.646Z,5.80
2018-02-13T10:44:59.761Z,4.50
2018-02-13T10:47:28.868Z,4.80
2018-02-13T10:49:57.982Z,4.50
2018-02-13T10:52:27.094Z,3.97
2018-02-13T10:54:56.984Z,3.03
2018-02-13T10:57:26.660Z,4.50
2018-02-13T10:59:55.760Z,4.23
2018-02-13T11:02:24.898Z,4.07
2018-02-13T11:04:54.038Z,2.87
2018-02-13T11:07:23.124Z,2.67
2018-02-13T11:09:52.269Z,3.00
2018-02-13T11:12:22.105Z,3.07
2018-02-13T11:14:51.231Z,3.40
2018-02-13T11:17:21.086Z,3.20
2018-02-13T11:19:50.226Z,3.90
2018-02-13T11:22:19.330Z,3.50
2018-02-13T11:24:49.203Z,2.80
2018-02-13T11:27:18.291Z,2.20
2018-02-13T11:29:47.413Z,2.53
2018-02-13T11:32:16.495Z,2.40
2018-02-13T11:34:45.595Z,2.73
2018-02-13T11:37:14.723Z,2.90
2018-02-13T11:39:43.806Z,2.87
2018-02-13T11:42:12.906Z,2.87
2018-02-13T11:44:42.020Z,2.70
2018-02-13T11:47:11.867Z,2.50
2018-02-13T11:49:40.998Z,3.00
2018-02-13T11:52:10.078Z,2.10
2018-02-13T11:54:39.218Z,2.47
2018-02-13T11:57:08.307Z,2.53
2018-02-13T11:59:37.420Z,2.17
2018-02-13T12:02:06.508Z,2.20
2018-02-13T12:04:35.626Z,2.07
2018-02-13T12:07:05.496Z,2.00
2018-02-13T12:09:34.594Z,2.90
2018-02-13T12:12:03.702Z,1.90
2018-02-13T12:14:32.799Z,2.53
2018-02-13T12:17:01.886Z,2.70
2018-02-13T12:19:30.996Z,2.87
2018-02-13T12:22:00.099Z,2.60
2018-02-13T12:24:29.197Z,4.40
2018-02-13T12:26:59.076Z,2.57
2018-02-13T12:29:28.189Z,2.30
2018-02-13T12:31:57.295Z,2.90
2018-02-13T12:34:26.406Z,2.50
2018-02-13T12:36:55.503Z,4.63
2018-02-13T12:39:25.386Z,3.80
2018-02-13T12:41:54.482Z,3.00
2018-02-13T12:44:23.590Z,3.97
2018-02-13T12:46:52.690Z,2.67
2018-02-13T12:49:22.571Z,2.80
2018-02-13T12:51:51.657Z,2.90
2018-02-13T12:54:20.780Z,2.87
2018-02-13T12:56:49.879Z,3.10
2018-02-13T12:59:18.983Z,3.20
2018-02-13T13:01:48.142Z,2.93
2018-02-13T13:04:17.969Z,2.80
2018-02-13T13:06:47.112Z,2.97
2018-02-13T13:09:16.981Z,2.30
2018-02-13T13:11:46.085Z,2.47
2018-02-13T13:14:15.192Z,2.20
2018-02-13T13:16:44.286Z,2.77
2018-02-13T13:19:13.395Z,3.07
2018-02-13T13:21:43.297Z,2.33
2018-02-13T13:24:12.393Z,2.63
2018-02-13T13:26:41.506Z,2.70
2018-02-13T13:29:10.598Z,2.40
2018-02-13T13:31:40.449Z,2.80
2018-02-13T13:34:09.558Z,2.30
2018-02-13T13:36:38.711Z,2.40
2018-02-13T13:39:07.774Z,3.00
2018-02-13T13:41:36.866Z,2.30
2018-02-13T13:44:05.971Z,3.30
2018-02-13T13:46:35.113Z,10.87
2018-02-13T13:49:04.231Z,6.30
2018-02-13T13:51:33.324Z,4.50
2018-02-13T13:54:02.421Z,10.80
2018-02-13T13:56:32.840Z,3.50
2018-02-13T13:59:01.956Z,3.77
2018-02-13T14:01:31.061Z,2.70
2018-02-13T14:04:00.149Z,3.00
2018-02-13T14:06:29.262Z,3.60
2018-02-13T14:08:58.341Z,2.70
2018-02-13T14:11:27.459Z,2.97
2018-02-13T14:13:56.584Z,2.17
2018-02-13T14:16:26.446Z,3.53
2018-02-13T14:18:55.566Z,2.60
2018-02-13T14:21:24.676Z,2.80
2018-02-13T14:23:54.552Z,2.80
2018-02-13T14:26:24.470Z,3.23
2018-02-13T14:28:53.622Z,2.97
2018-02-13T14:31:22.702Z,2.50
2018-02-13T14:33:52.589Z,2.80
2018-02-13T14:36:21.697Z,2.17
2018-02-13T14:38:50.816Z,2.73
2018-02-13T14:41:20.713Z,3.87
2018-02-13T14:43:49.807Z,3.40
2018-02-13T14:46:18.901Z,2.90
2018-02-13T14:48:48.013Z,3.20
2018-02-13T14:51:17.893Z,2.87
2018-02-13T14:53:47.016Z,2.57
2018-02-13T14:56:16.870Z,3.17
2018-02-13T14:58:45.985Z,3.57
2018-02-13T15:01:15.896Z,3.50
2018-02-13T15:03:45.026Z,4.20
2018-02-13T15:06:15.622Z,3.90
2018-02-13T15:08:44.750Z,3.97
2018-02-13T15:11:13.868Z,3.00
2018-02-13T15:13:43.010Z,3.90
2018-02-13T15:16:12.122Z,3.53
2018-02-13T15:18:43.203Z,3.67
2018-02-13T15:21:12.293Z,3.63
2018-02-13T15:23:42.223Z,4.47
2018-02-13T15:26:12.079Z,4.00
2018-02-13T15:28:41.227Z,5.87
2018-02-13T15:31:10.379Z,3.37
2018-02-13T15:33:40.230Z,2.80
2018-02-13T15:36:10.105Z,4.73
2018-02-13T15:38:39.974Z,3.40
2018-02-13T15:41:09.846Z,3.90
2018-02-13T15:43:38.961Z,3.30
2018-02-13T15:46:08.042Z,3.90
2018-02-13T15:48:37.133Z,3.93
2018-02-13T15:51:06.249Z,4.00
2018-02-13T15:53:35.339Z,4.70
2018-02-13T15:56:05.007Z,4.07
2018-02-13T15:58:34.164Z,3.20
2018-02-13T16:01:03.227Z,3.83
2018-02-13T16:03:32.317Z,2.90
2018-02-13T16:06:02.151Z,3.33
2018-02-13T16:08:31.254Z,3.27
2018-02-13T16:11:00.369Z,3.63
2018-02-13T16:13:29.482Z,2.80
2018-02-13T16:15:59.347Z,3.20
2018-02-13T16:18:28.437Z,3.23
2018-02-13T16:20:57.554Z,4.03
2018-02-13T16:23:26.649Z,4.07
2018-02-13T16:25:56.555Z,4.70
2018-02-13T16:28:27.260Z,4.83
2018-02-13T16:30:56.347Z,5.30
2018-02-13T16:33:25.459Z,4.87
2018-02-13T16:35:54.573Z,6.67
2018-02-13T16:38:23.714Z,7.50
2018-02-13T16:40:52.821Z,12.47
2018-02-13T16:43:22.710Z,11.27
2018-02-13T16:45:52.592Z,5.57
2018-02-13T16:48:21.703Z,5.07
2018-02-13T16:50:50.820Z,5.73
2018-02-13T16:53:19.920Z,4.57
2018-02-13T16:55:49.789Z,4.67
2018-02-13T16:58:18.910Z,5.53
2018-02-13T17:00:48.017Z,4.77
2018-02-13T17:03:17.141Z,3.30
2018-02-13T17:05:46.329Z,3.57
2018-02-13T17:08:16.164Z,3.83
2018-02-13T17:10:45.285Z,5.07
2018-02-13T17:13:14.381Z,5.77
2018-02-13T17:15:43.482Z,4.63
2018-02-13T17:18:12.629Z,4.73
2018-02-13T17:20:42.489Z,4.30
2018-02-13T17:23:11.626Z,4.27
2018-02-13T17:25:41.483Z,4.47
2018-02-13T17:28:11.360Z,4.37
2018-02-13T17:30:40.505Z,4.30
2018-02-13T17:33:09.629Z,4.87
2018-02-13T17:35:38.748Z,5.30
2018-02-13T17:38:07.864Z,4.33
2018-02-13T17:40:36.999Z,4.30
2018-02-13T17:43:06.237Z,4.63
2018-02-13T17:45:35.359Z,5.10
2018-02-13T17:48:04.444Z,5.03
2018-02-13T17:50:33.546Z,4.63
2018-02-13T17:53:02.688Z,4.83
2018-02-13T17:55:31.774Z,4.93
2018-02-13T17:58:00.869Z,6.47
2018-02-13T18:00:29.980Z,4.50
2018-02-13T18:02:59.095Z,5.87
2018-02-13T18:05:28.209Z,5.43
2018-02-13T18:07:58.111Z,5.20
2018-02-13T18:10:27.218Z,6.07
2018-02-13T18:12:56.364Z,6.40
2018-02-13T18:15:26.254Z,6.17
2018-02-13T18:17:55.371Z,6.10
2018-02-13T18:20:25.278Z,6.30
2018-02-13T18:22:54.389Z,6.17
2018-02-13T18:25:23.507Z,6.00
2018-02-13T18:27:52.629Z,7.07
2018-02-13T18:30:22.500Z,6.10
2018-02-13T18:32:51.633Z,6.77
2018-02-13T18:35:21.517Z,6.10
2018-02-13T18:37:50.642Z,7.53
2018-02-13T18:40:20.517Z,7.90
2018-02-13T18:42:49.649Z,7.67
2018-02-13T18:45:19.546Z,8.30
2018-02-13T18:47:48.694Z,10.00
2018-02-13T18:50:17.823Z,9.70
2018-02-13T18:55:16.087Z,8.50
2018-02-13T18:57:45.177Z,6.97
2018-02-13T19:00:14.343Z,8.10
2018-02-13T19:02:43.447Z,6.57
2018-02-13T19:05:13.319Z,7.57
2018-02-13T19:07:42.434Z,6.80
2018-02-13T19:10:12.351Z,6.53
2018-02-13T19:12:41.469Z,8.17
2018-02-13T19:15:11.355Z,6.77
2018-02-13T19:17:40.465Z,7.80
2018-02-13T19:20:10.352Z,7.63
2018-02-13T19:22:39.483Z,7.63
2018-02-13T19:25:09.373Z,8.73
2018-02-13T19:27:38.472Z,8.07
2018-02-13T19:30:07.602Z,7.90
2018-02-13T19:32:37.514Z,10.87
2018-02-13T19:35:07.396Z,11.53
2018-02-13T19:37:36.525Z,12.93
2018-02-13T19:40:05.652Z,12.93
2018-02-13T19:42:34.792Z,11.20
2018-02-13T19:45:03.907Z,10.87
2018-02-13T19:47:33.791Z,9.90
2018-02-13T19:50:02.930Z,9.00
2018-02-13T19:52:32.797Z,8.50
2018-02-13T19:55:01.950Z,8.07
2018-02-13T19:57:31.054Z,7.67
2018-02-13T20:00:00.211Z,8.83
2018-02-13T20:02:29.296Z,8.20
2018-02-13T20:04:58.451Z,8.27
2018-02-13T20:07:27.819Z,8.03
2018-02-13T20:09:57.727Z,8.73
2018-02-13T20:12:26.828Z,9.20
2018-02-13T20:14:56.722Z,13.10
2018-02-13T20:17:25.849Z,13.00
2018-02-13T20:19:55.745Z,9.87
2018-02-13T20:22:24.858Z,9.03
2018-02-13T20:24:54.739Z,8.53
2018-02-13T20:27:23.866Z,9.43
2018-02-13T20:29:53.734Z,8.20
2018-02-13T20:32:22.899Z,10.30
2018-02-13T20:34:52.012Z,9.60
2018-02-13T20:37:21.180Z,10.20
2018-02-13T20:39:51.059Z,9.50
2018-02-13T20:42:20.168Z,8.90
2018-02-13T20:44:50.067Z,8.87
2018-02-13T20:47:19.235Z,8.13
2018-02-13T20:49:48.343Z,9.43
2018-02-13T20:52:17.491Z,9.87
2018-02-13T20:54:46.643Z,8.90
2018-02-13T20:57:15.799Z,8.37
2018-02-13T20:59:44.905Z,8.13
2018-02-13T21:02:14.049Z,8.60
2018-02-13T21:04:43.191Z,8.80
2018-02-13T21:07:12.309Z,8.40
2018-02-13T21:09:41.457Z,8.93
2018-02-13T21:12:10.558Z,8.70
2018-02-13T21:14:39.686Z,9.20
2018-02-13T21:17:08.783Z,9.30
2018-02-13T21:19:37.921Z,9.20
2018-02-13T21:22:07.041Z,8.27
2018-02-13T21:24:37.236Z,8.17
2018-02-13T21:27:06.687Z,9.27
2018-02-13T21:29:35.805Z,8.10
2018-02-13T21:32:04.941Z,9.13
2018-02-13T21:34:34.059Z,8.90
2018-02-13T21:37:03.986Z,8.20
2018-02-13T21:39:33.114Z,8.33
2018-02-13T21:42:02.238Z,8.87
2018-02-13T21:44:31.350Z,8.73
2018-02-13T21:47:00.826Z,8.83
2018-02-13T21:49:29.956Z,8.60
2018-02-13T21:51:59.830Z,8.80
2018-02-13T21:54:28.988Z,9.60
2018-02-13T21:56:58.858Z,7.80
2018-02-13T21:59:27.966Z,8.13
2018-02-13T22:01:57.075Z,9.07
2018-02-13T22:04:26.166Z,9.20
2018-02-13T22:06:55.298Z,9.03
2018-02-13T22:09:24.395Z,8.60
2018-02-13T22:11:53.499Z,8.20
2018-02-13T22:14:22.582Z,9.40
2018-02-13T22:16:51.700Z,9.50
2018-02-13T22:19:21.567Z,8.33
2018-02-13T22:21:51.442Z,8.73
2018-02-13T22:24:20.553Z,9.97
2018-02-13T22:26:49.696Z,12.00
2018-02-13T22:29:18.794Z,10.90
2018-02-13T22:31:48.690Z,11.00
2018-02-13T22:36:53.117Z,8.77
2018-02-13T22:39:22.216Z,9.67
2018-02-13T22:41:52.091Z,8.73
2018-02-13T22:44:21.227Z,8.20
2018-02-13T22:46:50.335Z,8.70
2018-02-13T22:49:19.487Z,8.70
2018-02-13T22:51:48.599Z,8.87
2018-02-13T22:54:17.722Z,8.63
2018-02-13T22:56:47.590Z,8.10
2018-02-13T22:59:16.719Z,9.00
2018-02-13T23:01:46.611Z,9.00
2018-02-13T23:04:15.732Z,8.30
2018-02-13T23:06:45.612Z,9.07
2018-02-13T23:09:14.728Z,9.77
2018-02-13T23:11:43.850Z,9.10
2018-02-13T23:14:13.732Z,10.37
2018-02-13T23:16:44.356Z,8.43
2018-02-13T23:19:13.551Z,9.13
2018-02-13T23:21:43.433Z,10.67
2018-02-13T23:24:12.546Z,9.80
2018-02-13T23:26:41.681Z,10.57
2018-02-13T23:29:11.573Z,9.70
2018-02-13T23:31:40.678Z,9.27
2018-02-13T23:34:09.799Z,9.10
2018-02-13T23:36:39.679Z,10.20
2018-02-13T23:39:08.796Z,11.10
2018-02-13T23:41:37.911Z,10.87
2018-02-13T23:44:08.642Z,10.30
2018-02-13T23:46:39.592Z,10.87
2018-02-13T23:49:08.727Z,11.30
2018-02-13T23:51:37.839Z,10.57
2018-02-13T23:54:06.931Z,10.87
2018-02-13T23:56:36.050Z,12.80
2018-02-13T23:59:05.173Z,13.17
